createdAt,value
2023-02-03T00:00:15.227Z,99752.19
2023-02-03T00:02:43.705Z,99744.34
2023-02-03T00:05:12.115Z,99730.25
2023-02-03T00:07:41.067Z,99752.69
2023-02-03T00:10:10.366Z,99740.44
2023-02-03T00:12:38.739Z,99747.47
2023-02-03T00:15:08.036Z,99756.06
2023-02-03T00:17:37.776Z,99747.47
2023-02-03T00:20:07.105Z,99749.50
2023-02-03T00:22:35.417Z,99741.44
2023-02-03T00:25:03.829Z,99753.38
2023-02-03T00:27:33.231Z,99740.94
2023-02-03T00:30:01.638Z,99734.56
2023-02-03T00:32:30.409Z,99733.56
2023-02-03T00:35:00.146Z,99741.94
2023-02-03T00:37:28.577Z,99740.28
2023-02-03T00:39:56.855Z,99755.72
2023-02-03T00:42:25.166Z,99740.75
2023-02-03T00:44:53.578Z,99747.13
2023-02-03T00:47:22.085Z,99743.97
2023-02-03T00:49:50.480Z,99751.03
2023-02-03T00:52:20.259Z,99735.44
2023-02-03T00:54:48.659Z,99756.44
2023-02-03T00:57:18.532Z,99746.25
2023-02-03T00:59:46.945Z,99764.84
2023-02-03T01:02:16.840Z,99756.88
2023-02-03T01:04:45.215Z,99756.88
2023-02-03T01:07:13.892Z,99754.88
2023-02-03T01:09:43.660Z,99743.34
2023-02-03T01:12:12.412Z,99738.31
2023-02-03T01:14:42.327Z,99734.22
2023-02-03T01:17:10.921Z,99720.13
2023-02-03T01:19:39.299Z,99729.16
2023-02-03T01:22:07.656Z,99730.69
2023-02-03T01:24:35.951Z,99734.22
2023-02-03T01:27:06.228Z,99731.88
2023-02-03T01:29:34.652Z,99722.31
2023-02-03T01:32:03.215Z,99731.34
2023-02-03T01:34:31.792Z,99719.44
2023-02-03T01:37:00.691Z,99715.81
2023-02-03T01:39:30.073Z,99730.53
2023-02-03T01:41:58.782Z,99721.00
2023-02-03T01:44:42.632Z,99735.41
2023-02-03T01:47:28.768Z,99732.59
2023-02-03T01:50:03.096Z,99725.19
2023-02-03T01:52:33.490Z,99710.75
2023-02-03T01:55:05.322Z,99720.78
2023-02-03T01:57:39.351Z,99723.13
2023-02-03T02:00:10.808Z,99713.44
2023-02-03T02:02:44.036Z,99710.44
2023-02-03T02:05:18.596Z,99704.38
2023-02-03T02:07:48.858Z,99691.06
2023-02-03T02:10:17.731Z,99674.16
2023-02-03T02:12:46.224Z,99676.69
2023-02-03T02:15:17.600Z,99681.06
2023-02-03T02:18:02.873Z,99676.50
2023-02-03T02:20:39.420Z,99688.44
2023-02-03T02:23:39.840Z,99675.19
2023-02-03T02:26:49.759Z,99689.09
2023-02-03T02:29:47.227Z,99679.38
2023-02-03T02:32:33.687Z,99654.72
2023-02-03T02:35:10.666Z,99630.25
2023-02-03T02:37:49.683Z,99623.38
2023-02-03T02:40:26.361Z,99636.16
2023-02-03T02:43:04.455Z,99656.28
2023-02-03T02:45:40.612Z,99647.03
2023-02-03T02:48:18.222Z,99672.56
2023-02-03T02:50:49.414Z,99663.94
2023-02-03T02:53:22.151Z,99660.41
2023-02-03T02:55:54.622Z,99676.06
2023-02-03T02:58:24.576Z,99659.25
2023-02-03T03:00:52.913Z,99652.34
2023-02-03T03:03:24.841Z,99622.22
2023-02-03T03:05:55.991Z,99654.59
2023-02-03T03:08:40.553Z,99645.69
2023-02-03T03:11:09.028Z,99637.66
2023-02-03T03:13:43.207Z,99633.28
2023-02-03T03:16:13.315Z,99635.56
2023-02-03T03:18:47.370Z,99624.50
2023-02-03T03:21:23.593Z,99621.81
2023-02-03T03:23:53.587Z,99638.81
2023-02-03T03:26:28.761Z,99649.72
2023-02-03T03:29:07.460Z,99658.59
2023-02-03T03:31:36.111Z,99672.19
2023-02-03T03:34:06.250Z,99672.00
2023-02-03T03:36:41.789Z,99677.19
2023-02-03T03:39:17.027Z,99670.75
2023-02-03T03:41:55.453Z,99694.31
2023-02-03T03:44:28.556Z,99666.78
2023-02-03T03:47:04.648Z,99699.31
2023-02-03T03:49:36.936Z,99688.09
2023-02-03T03:52:10.245Z,99708.94
2023-02-03T03:54:40.077Z,99709.88
2023-02-03T03:57:15.445Z,99721.72
2023-02-03T03:59:48.461Z,99730.97
2023-02-03T04:02:18.373Z,99726.94
2023-02-03T04:04:50.164Z,99724.59
2023-02-03T04:07:19.905Z,99728.94
2023-02-03T04:09:48.253Z,99741.03
2023-02-03T04:12:23.687Z,99756.66
2023-02-03T04:14:52.053Z,99768.22
2023-02-03T04:17:20.526Z,99774.25
2023-02-03T04:19:50.502Z,99773.78
2023-02-03T04:22:18.815Z,99749.09
2023-02-03T04:24:49.539Z,99746.44
2023-02-03T04:27:17.904Z,99741.22
2023-02-03T04:29:47.494Z,99747.59
2023-02-03T04:32:15.797Z,99747.44
2023-02-03T04:34:44.142Z,99737.69
2023-02-03T04:37:14.504Z,99735.84
2023-02-03T04:39:42.866Z,99735.00
2023-02-03T04:42:11.124Z,99738.00
2023-02-03T04:44:39.403Z,99733.00
2023-02-03T04:47:07.692Z,99729.66
2023-02-03T04:49:36.070Z,99725.97
2023-02-03T04:52:04.503Z,99704.09
2023-02-03T04:54:34.479Z,99702.97
2023-02-03T04:57:02.900Z,99714.22
2023-02-03T04:59:31.351Z,99724.63
2023-02-03T05:01:59.914Z,99730.16
2023-02-03T05:04:28.237Z,99749.78
2023-02-03T05:06:57.548Z,99752.47
2023-02-03T05:09:26.338Z,99753.44
2023-02-03T05:11:56.189Z,99730.97
2023-02-03T05:14:24.633Z,99743.88
2023-02-03T05:16:56.184Z,99761.84
2023-02-03T05:19:24.550Z,99751.72
2023-02-03T05:21:52.910Z,99741.72
2023-02-03T05:24:21.281Z,99740.88
2023-02-03T05:26:49.776Z,99740.38
2023-02-03T05:29:19.539Z,99701.44
2023-02-03T05:31:47.881Z,99737.47
2023-02-03T05:34:16.351Z,99745.41
2023-02-03T05:36:44.684Z,99736.69
2023-02-03T05:39:12.976Z,99732.34
2023-02-03T05:41:52.383Z,99717.56
2023-02-03T05:44:23.060Z,99742.38
2023-02-03T05:46:53.194Z,99743.03
2023-02-03T05:49:23.236Z,99733.66
2023-02-03T05:51:52.912Z,99716.03
2023-02-03T05:54:21.649Z,99718.88
2023-02-03T05:56:50.142Z,99702.78
2023-02-03T05:59:18.681Z,99696.00
2023-02-03T06:01:48.332Z,99704.13
2023-02-03T06:04:16.741Z,99699.38
2023-02-03T06:06:47.627Z,99698.53
2023-02-03T06:09:16.127Z,99688.44
2023-02-03T06:11:44.388Z,99681.06
2023-02-03T06:14:12.737Z,99647.44
2023-02-03T06:16:41.118Z,99677.19
2023-02-03T06:19:11.141Z,99599.81
2023-02-03T06:21:39.632Z,99701.03
2023-02-03T06:24:08.439Z,99692.31
2023-02-03T06:26:36.957Z,99698.41
2023-02-03T06:29:05.512Z,99705.13
2023-02-03T06:31:33.977Z,99696.06
2023-02-03T06:34:02.564Z,99703.28
2023-02-03T06:36:32.337Z,99712.38
2023-02-03T06:39:00.727Z,99710.88
2023-02-03T06:41:30.588Z,99710.34
2023-02-03T06:44:01.644Z,99692.56
2023-02-03T06:46:30.923Z,99708.69
2023-02-03T06:48:59.435Z,99700.13
2023-02-03T06:51:27.838Z,99704.78
2023-02-03T06:53:58.628Z,99712.38
2023-02-03T06:56:26.994Z,99721.25
2023-02-03T06:58:55.344Z,99717.88
2023-02-03T07:01:23.709Z,99715.06
2023-02-03T07:03:51.969Z,99698.41
2023-02-03T07:06:20.363Z,99704.28
2023-02-03T07:08:48.696Z,99707.13
2023-02-03T07:11:18.401Z,99705.97
2023-02-03T07:13:46.828Z,99694.75
2023-02-03T07:16:17.364Z,99699.41
2023-02-03T07:18:48.054Z,99696.94
2023-02-03T07:21:17.775Z,99685.16
2023-02-03T07:23:48.368Z,99691.19
2023-02-03T07:26:18.857Z,99687.28
2023-02-03T07:28:47.378Z,99682.59
2023-02-03T07:31:16.151Z,99680.75
2023-02-03T07:33:44.579Z,99697.06
2023-02-03T07:36:13.117Z,99697.69
2023-02-03T07:38:41.509Z,99704.56
2023-02-03T07:41:09.893Z,99700.72
2023-02-03T07:43:41.915Z,99715.97
2023-02-03T07:46:10.341Z,99718.09
2023-02-03T07:48:38.776Z,99702.38
2023-02-03T07:51:07.101Z,99717.09
2023-02-03T07:53:35.489Z,99715.41
2023-02-03T07:56:05.345Z,99717.09
2023-02-03T07:58:33.988Z,99723.91
2023-02-03T08:01:11.726Z,99734.22
2023-02-03T08:03:40.074Z,99725.50
2023-02-03T08:06:09.139Z,99727.00
2023-02-03T08:08:41.072Z,99731.25
2023-02-03T08:11:09.384Z,99746.53
2023-02-03T08:13:38.514Z,99759.78
2023-02-03T08:16:08.680Z,99760.63
2023-02-03T08:18:36.995Z,99773.53
2023-02-03T08:21:05.588Z,99792.19
2023-02-03T08:23:36.011Z,99778.59
2023-02-03T08:26:04.452Z,99769.69
2023-02-03T08:28:32.888Z,99744.00
2023-02-03T08:31:01.492Z,99759.13
2023-02-03T08:33:31.514Z,99763.66
2023-02-03T08:36:01.137Z,99764.00
2023-02-03T08:38:29.809Z,99788.63
2023-02-03T08:40:58.154Z,99772.84
2023-02-03T08:43:28.869Z,99783.91
2023-02-03T08:45:57.275Z,99768.13
2023-02-03T08:48:25.706Z,99765.47
2023-02-03T08:50:55.357Z,99764.78
2023-02-03T08:53:23.789Z,99778.75
2023-02-03T08:55:52.321Z,99768.19
2023-02-03T08:58:20.800Z,99775.06
2023-02-03T09:00:49.928Z,99765.31
2023-02-03T09:03:18.372Z,99751.94
2023-02-03T09:05:46.770Z,99753.00
2023-02-03T09:08:18.963Z,99763.63
2023-02-03T09:10:47.466Z,99743.38
2023-02-03T09:13:15.777Z,99739.66
2023-02-03T09:15:44.484Z,99739.97
2023-02-03T09:18:13.220Z,99714.31
2023-02-03T09:20:41.583Z,99735.38
2023-02-03T09:23:10.199Z,99753.94
2023-02-03T09:25:39.932Z,99749.16
2023-02-03T09:28:08.308Z,99742.34
2023-02-03T09:30:39.735Z,99741.59
2023-02-03T09:33:08.159Z,99753.09
2023-02-03T09:35:36.546Z,99746.78
2023-02-03T09:38:04.926Z,99752.00
2023-02-03T09:40:35.999Z,99753.13
2023-02-03T09:43:20.002Z,99740.50
2023-02-03T09:45:48.416Z,99727.81
2023-02-03T09:48:22.277Z,99711.19
2023-02-03T09:50:52.313Z,99707.81
2023-02-03T09:53:29.598Z,99720.47
2023-02-03T09:56:00.064Z,99718.63
2023-02-03T09:58:34.070Z,99709.91
2023-02-03T10:01:05.702Z,99710.38
2023-02-03T10:03:39.257Z,99702.53
2023-02-03T10:06:28.046Z,99683.66
2023-02-03T10:09:25.387Z,99714.63
2023-02-03T10:12:13.258Z,99726.66
2023-02-03T10:14:57.255Z,99729.69
2023-02-03T10:17:32.122Z,99739.22
2023-02-03T10:20:05.943Z,99744.72
2023-02-03T10:22:39.020Z,99725.34
2023-02-03T10:25:20.722Z,99724.72
2023-02-03T10:27:58.479Z,99712.56
2023-02-03T10:30:32.936Z,99728.06
2023-02-03T10:33:10.991Z,99717.25
2023-02-03T10:35:48.501Z,99716.25
2023-02-03T10:38:36.223Z,99708.09
2023-02-03T10:41:05.227Z,99702.72
2023-02-03T10:43:51.701Z,99693.03
2023-02-03T10:46:28.001Z,99697.69
2023-02-03T10:48:57.318Z,99686.81
2023-02-03T10:51:27.279Z,99691.47
2023-02-03T10:53:55.648Z,99695.25
2023-02-03T10:56:27.742Z,99694.69
2023-02-03T10:58:58.468Z,99693.53
2023-02-03T11:01:29.665Z,99701.16
2023-02-03T11:04:03.214Z,99694.47
2023-02-03T11:06:32.579Z,99687.41
2023-02-03T11:09:01.720Z,99678.22
2023-02-03T11:11:34.171Z,99680.91
2023-02-03T11:14:13.893Z,99658.34
2023-02-03T11:16:47.333Z,99650.09
2023-02-03T11:19:19.202Z,99638.88
2023-02-03T11:21:50.986Z,99631.94
2023-02-03T11:24:21.782Z,99651.28
2023-02-03T11:26:53.844Z,99640.06
2023-02-03T11:29:26.738Z,99636.06
2023-02-03T11:31:59.332Z,99623.50
2023-02-03T11:34:30.845Z,99645.06
2023-02-03T11:36:59.765Z,99625.13
2023-02-03T11:39:35.513Z,99624.47
2023-02-03T11:42:21.905Z,99610.50
2023-02-03T11:44:50.704Z,99616.84
2023-02-03T11:47:22.855Z,99599.19
2023-02-03T11:50:18.425Z,99592.19
2023-02-03T11:53:00.886Z,99590.75
2023-02-03T11:55:49.799Z,99572.00
2023-02-03T11:58:53.915Z,99593.03
2023-02-03T12:01:34.501Z,99610.59
2023-02-03T12:04:25.099Z,99582.38
2023-02-03T12:07:11.549Z,99599.00
2023-02-03T12:09:52.699Z,99601.28
2023-02-03T12:12:42.067Z,99601.53
2023-02-03T12:15:42.364Z,99599.41
2023-02-03T12:18:25.156Z,99604.56
2023-02-03T12:21:06.361Z,99594.56
2023-02-03T12:23:56.452Z,99598.41
2023-02-03T12:26:26.867Z,99614.38
2023-02-03T12:29:03.577Z,99604.16
2023-02-03T12:31:38.233Z,99610.00
2023-02-03T12:34:12.105Z,99612.97
2023-02-03T12:36:46.491Z,99620.97
2023-02-03T12:39:20.896Z,99606.84
2023-02-03T12:41:56.162Z,99586.44
2023-02-03T12:44:27.586Z,99585.44
2023-02-03T12:47:04.515Z,99574.22
2023-02-03T12:49:42.462Z,99558.22
2023-02-03T12:52:26.584Z,99529.75
2023-02-03T12:55:06.875Z,99540.22
2023-02-03T12:57:40.954Z,99526.31
2023-02-03T13:00:21.538Z,99516.28
2023-02-03T13:03:00.562Z,99524.97
2023-02-03T13:05:53.972Z,99518.03
2023-02-03T13:08:32.354Z,99505.22
2023-02-03T13:11:15.053Z,99515.81
2023-02-03T13:13:49.213Z,99523.97
2023-02-03T13:16:21.575Z,99528.44
2023-02-03T13:18:57.012Z,99520.91
2023-02-03T13:21:25.469Z,99512.72
2023-02-03T13:23:55.281Z,99525.75
2023-02-03T13:26:48.604Z,99516.53
2023-02-03T13:29:34.558Z,99528.78
2023-02-03T13:32:17.181Z,99523.41
2023-02-03T13:35:03.675Z,99516.53
2023-02-03T13:37:54.762Z,99515.22
2023-02-03T13:40:40.635Z,99518.97
2023-02-03T13:43:28.387Z,99519.69
2023-02-03T13:46:09.129Z,99503.63
2023-02-03T13:48:38.372Z,99521.72
2023-02-03T13:51:14.621Z,99512.53
2023-02-03T13:53:47.383Z,99532.22
2023-02-03T13:56:23.201Z,99530.34
2023-02-03T13:59:28.533Z,99516.22
2023-02-03T14:02:45.798Z,99524.88
2023-02-03T14:05:41.502Z,99515.63
2023-02-03T14:08:53.012Z,99522.19
2023-02-03T14:11:41.458Z,99523.31
2023-02-03T14:15:03.979Z,99527.38
2023-02-03T14:18:08.835Z,99534.94
2023-02-03T14:20:58.254Z,99525.91
2023-02-03T14:23:30.668Z,99532.84
2023-02-03T14:26:00.473Z,99528.00
2023-02-03T14:28:40.647Z,99519.16
2023-02-03T14:31:15.539Z,99519.31
2023-02-03T14:33:57.079Z,99493.63
2023-02-03T14:36:40.927Z,99514.88
2023-02-03T14:39:55.417Z,99516.53
2023-02-03T14:42:44.290Z,99523.31
2023-02-03T14:45:23.636Z,99526.75
2023-02-03T14:48:06.717Z,99523.22
2023-02-03T14:50:48.489Z,99508.28
2023-02-03T14:53:43.168Z,99512.25
2023-02-03T14:56:28.129Z,99506.53
2023-02-03T14:58:59.569Z,99518.31
2023-02-03T15:01:44.728Z,99517.09
2023-02-03T15:04:22.997Z,99526.59
2023-02-03T15:06:52.418Z,99529.56
2023-02-03T15:09:26.956Z,99546.16
2023-02-03T15:11:55.325Z,99547.81
2023-02-03T15:14:25.161Z,99543.38
2023-02-03T15:16:57.571Z,99552.94
2023-02-03T15:19:27.743Z,99564.81
2023-02-03T15:21:56.382Z,99555.63
2023-02-03T15:24:25.922Z,99564.25
2023-02-03T15:26:55.001Z,99576.69
2023-02-03T15:29:25.687Z,99563.50
2023-02-03T15:31:57.072Z,99596.00
2023-02-03T15:34:30.049Z,99588.47
2023-02-03T15:37:00.719Z,99591.81
2023-02-03T15:39:37.578Z,99593.31
2023-02-03T15:42:09.514Z,99595.88
2023-02-03T15:44:41.010Z,99596.72
2023-02-03T15:47:20.329Z,99572.50
2023-02-03T15:49:50.976Z,99606.16
2023-02-03T15:52:21.887Z,99601.91
2023-02-03T15:54:54.739Z,99632.66
2023-02-03T15:57:25.334Z,99606.19
2023-02-03T15:59:55.035Z,99617.94
2023-02-03T16:02:28.113Z,99647.84
2023-02-03T16:04:56.530Z,99660.75
2023-02-03T16:07:25.766Z,99648.91
2023-02-03T16:09:55.755Z,99671.06
2023-02-03T16:12:24.711Z,99677.13
2023-02-03T16:14:53.275Z,99680.47
2023-02-03T16:17:26.311Z,99676.78
2023-02-03T16:20:16.225Z,99707.53
2023-02-03T16:22:45.484Z,99707.19
2023-02-03T16:25:16.363Z,99699.44
2023-02-03T16:27:45.311Z,99702.88
2023-02-03T16:30:39.128Z,99692.91
2023-02-03T16:33:31.929Z,99682.91
2023-02-03T16:36:19.572Z,99678.38
2023-02-03T16:39:05.587Z,99693.28
2023-02-03T16:41:52.255Z,99681.50
2023-02-03T16:44:37.797Z,99678.00
2023-02-03T16:47:34.733Z,99692.75
2023-02-03T16:50:36.450Z,99679.31
2023-02-03T16:53:06.325Z,99691.19
2023-02-03T16:55:34.435Z,99686.00
2023-02-03T16:58:03.912Z,99693.06
2023-02-03T17:00:31.940Z,99686.19
2023-02-03T17:02:59.988Z,99674.25
2023-02-03T17:05:28.538Z,99678.91
2023-02-03T17:07:56.800Z,99683.41
2023-02-03T17:10:24.808Z,99677.59
2023-02-03T17:12:52.916Z,99682.06
2023-02-03T17:15:22.342Z,99672.47
2023-02-03T17:17:50.321Z,99668.25
2023-02-03T17:20:18.403Z,99669.78
2023-02-03T17:22:46.398Z,99652.78
2023-02-03T17:25:14.507Z,99658.44
2023-02-03T17:27:42.634Z,99661.81
2023-02-03T17:30:11.783Z,99663.97
2023-02-03T17:32:41.407Z,99652.19
2023-02-03T17:35:11.593Z,99651.91
2023-02-03T17:37:39.726Z,99651.66
2023-02-03T17:54:06.685Z,99635.28
2023-02-03T17:56:36.478Z,99655.19
2023-02-03T17:59:06.532Z,99637.31
2023-02-03T18:01:34.928Z,99654.00
2023-02-03T18:04:06.259Z,99647.13
2023-02-03T18:06:35.123Z,99641.75
2023-02-03T18:09:04.431Z,99646.47
2023-02-03T18:11:45.985Z,99615.56
2023-02-03T18:14:16.383Z,99645.34
2023-02-03T18:16:45.415Z,99645.16
2023-02-03T18:19:16.616Z,99647.41
2023-02-03T18:21:46.997Z,99654.25
2023-02-03T18:24:16.822Z,99687.03
2023-02-03T18:26:50.720Z,99712.09
2023-02-03T18:29:19.207Z,99705.44
2023-02-03T18:31:48.220Z,99680.28
2023-02-03T18:34:18.215Z,99684.63
2023-02-03T18:36:47.244Z,99700.63
2023-02-03T18:39:16.403Z,99728.41
2023-02-03T18:41:44.733Z,99731.59
2023-02-03T18:44:13.150Z,99730.91
2023-02-03T18:46:41.508Z,99748.72
2023-02-03T18:49:10.383Z,99744.09
2023-02-03T18:51:40.076Z,99713.28
2023-02-03T18:54:08.445Z,99717.66
2023-02-03T18:56:37.018Z,99722.22
2023-02-03T18:59:09.654Z,99718.09
2023-02-03T19:01:39.702Z,99720.03
2023-02-03T19:04:08.421Z,99729.75
2023-02-03T19:06:37.216Z,99719.03
2023-02-03T19:09:07.357Z,99739.75
2023-02-03T19:11:35.848Z,99729.19
2023-02-03T19:14:04.652Z,99727.75
2023-02-03T19:16:33.091Z,99734.47
2023-02-03T19:19:01.934Z,99726.66
2023-02-03T19:21:30.342Z,99730.19
2023-02-03T19:23:58.654Z,99754.53
2023-02-03T19:26:28.658Z,99758.63
2023-02-03T19:28:57.085Z,99747.56
2023-02-03T19:31:25.498Z,99742.03
2023-02-03T19:33:53.950Z,99739.81
2023-02-03T19:36:22.285Z,99729.75
2023-02-03T19:38:50.733Z,99759.59
2023-02-03T19:41:19.144Z,99773.72
2023-02-03T19:43:51.978Z,99768.91
2023-02-03T19:46:21.764Z,99770.69
2023-02-03T19:48:50.300Z,99767.00
2023-02-03T19:51:18.629Z,99770.06
2023-02-03T19:53:46.965Z,100018.38
2023-02-03T19:56:15.356Z,99844.66
2023-02-03T19:58:45.922Z,99831.84
2023-02-03T20:01:15.917Z,99821.78
2023-02-03T20:03:44.406Z,99812.69
2023-02-03T20:06:14.841Z,99811.19
2023-02-03T20:08:43.313Z,99799.63
2023-02-03T20:11:11.926Z,99790.84
2023-02-03T20:13:43.482Z,99792.88
2023-02-03T20:16:11.978Z,99790.34
2023-02-03T20:18:42.030Z,99785.63
2023-02-03T20:21:10.595Z,99788.81
2023-02-03T20:23:39.056Z,99785.09
2023-02-03T20:26:07.506Z,99821.06
2023-02-03T20:28:35.811Z,99844.09
2023-02-03T20:31:04.717Z,99823.38
2023-02-03T20:33:33.360Z,99822.69
2023-02-03T20:36:03.077Z,99810.41
2023-02-03T20:38:33.992Z,99793.78
2023-02-03T20:41:02.803Z,99786.53
2023-02-03T20:43:31.836Z,99767.63
2023-02-03T20:46:00.169Z,99759.66
2023-02-03T20:48:28.583Z,99773.94
2023-02-03T20:50:56.918Z,99771.22
2023-02-03T20:53:27.268Z,99765.84
2023-02-03T20:56:01.467Z,99762.19
2023-02-03T20:58:35.817Z,99765.50
2023-02-03T21:01:11.118Z,99759.28
2023-02-03T21:03:56.980Z,99764.75
2023-02-03T21:06:25.696Z,99736.28
2023-02-03T21:09:02.708Z,99760.81
2023-02-03T21:11:31.593Z,99754.00
2023-02-03T21:14:00.148Z,99751.63
2023-02-03T21:16:40.035Z,99739.53
2023-02-03T21:19:15.931Z,99738.69
2023-02-03T21:21:47.536Z,99750.84
2023-02-03T21:24:26.458Z,99743.38
2023-02-03T21:26:56.175Z,99749.34
2023-02-03T21:29:27.037Z,99748.94
2023-02-03T21:31:56.419Z,99740.81
2023-02-03T21:34:30.230Z,99738.00
2023-02-03T21:37:02.148Z,99729.13
2023-02-03T21:39:35.036Z,99741.22
2023-02-03T21:42:40.983Z,99748.28
2023-02-03T21:45:28.432Z,99740.88
2023-02-03T21:47:59.096Z,99750.63
2023-02-03T21:50:30.313Z,99745.94
2023-02-03T21:53:03.479Z,99749.47
2023-02-03T21:55:33.159Z,99768.63
2023-02-03T21:58:14.325Z,99767.81
2023-02-03T22:02:56.797Z,99740.63
2023-02-03T22:05:25.434Z,99750.72
2023-02-03T22:07:54.730Z,99752.91
2023-02-03T22:10:23.028Z,99751.50
2023-02-03T22:12:51.325Z,99758.72
2023-02-03T22:15:19.686Z,99770.41
2023-02-03T22:17:50.467Z,99771.78
2023-02-03T22:20:19.637Z,99759.97
2023-02-03T22:22:48.035Z,99779.13
2023-02-03T22:25:16.592Z,99779.13
2023-02-03T22:27:47.980Z,99783.78
2023-02-03T22:30:17.946Z,99794.19
2023-02-03T22:32:46.259Z,99800.22
2023-02-03T22:35:16.408Z,99798.19
2023-02-03T22:37:44.796Z,99808.81
2023-02-03T22:40:13.970Z,99805.44
2023-02-03T22:42:42.436Z,99816.88
2023-02-03T22:45:12.687Z,99818.56
2023-02-03T22:47:41.341Z,99825.56
2023-02-03T22:50:11.619Z,99815.00
2023-02-03T22:52:41.378Z,99808.88
2023-02-03T22:55:10.924Z,99828.31
2023-02-03T22:57:40.676Z,99811.75
2023-02-03T23:00:11.732Z,99833.53
2023-02-03T23:02:40.348Z,99829.22
2023-02-03T23:05:10.292Z,99829.81
2023-02-03T23:07:39.622Z,99836.78
2023-02-03T23:10:13.136Z,99850.34
2023-02-03T23:12:41.528Z,99847.88
2023-02-03T23:15:10.890Z,99849.56
2023-02-03T23:17:42.263Z,99844.19
2023-02-03T23:20:13.312Z,99833.31
2023-02-03T23:22:41.770Z,99826.59
2023-02-03T23:25:12.199Z,99834.41
2023-02-03T23:27:40.705Z,99835.81
2023-02-03T23:30:10.836Z,99851.25
2023-02-03T23:32:39.273Z,99859.75
2023-02-03T23:35:26.761Z,99857.13
2023-02-03T23:37:57.423Z,99859.00
2023-02-03T23:40:27.191Z,99866.41
2023-02-03T23:42:55.499Z,99858.97
2023-02-03T23:45:23.810Z,99858.47
2023-02-03T23:47:52.194Z,99867.13
2023-02-03T23:50:21.020Z,99875.47
2023-02-03T23:52:49.885Z,99871.81
2023-02-03T23:55:20.860Z,99866.75
2023-02-03T23:57:50.997Z,99874.41
